sensor_id;sensor_type;location;lat;lon;timestamp;temperature;humidity
12115;DHT22;6121;49.810;6.418;2023-04-25T00:01:31;8.50;99.90
12115;DHT22;6121;49.810;6.418;2023-04-25T00:04:02;8.40;99.90
12115;DHT22;6121;49.810;6.418;2023-04-25T00:06:28;8.50;99.90
12115;DHT22;6121;49.810;6.418;2023-04-25T00:08:55;8.70;99.90
12115;DHT22;6121;49.810;6.418;2023-04-25T00:11:22;8.80;99.90
12115;DHT22;6121;49.810;6.418;2023-04-25T00:13:48;8.90;99.90
12115;DHT22;6121;49.810;6.418;2023-04-25T00:16:16;8.80;99.90
12115;DHT22;6121;49.810;6.418;2023-04-25T00:18:42;8.90;99.90
12115;DHT22;6121;49.810;6.418;2023-04-25T00:21:10;8.80;99.90
12115;DHT22;6121;49.810;6.418;2023-04-25T00:23:36;8.80;99.90
12115;DHT22;6121;49.810;6.418;2023-04-25T00:26:02;8.90;99.90
12115;DHT22;6121;49.810;6.418;2023-04-25T00:28:28;8.80;99.90
12115;DHT22;6121;49.810;6.418;2023-04-25T00:30:54;8.70;99.90
12115;DHT22;6121;49.810;6.418;2023-04-25T00:33:20;8.60;99.90
12115;DHT22;6121;49.810;6.418;2023-04-25T00:35:45;8.70;99.90
12115;DHT22;6121;49.810;6.418;2023-04-25T00:38:11;8.70;99.90
12115;DHT22;6121;49.810;6.418;2023-04-25T00:40:37;8.80;99.90
12115;DHT22;6121;49.810;6.418;2023-04-25T00:43:04;8.90;99.90
12115;DHT22;6121;49.810;6.418;2023-04-25T00:45:30;8.90;99.90
12115;DHT22;6121;49.810;6.418;2023-04-25T00:47:56;8.90;99.90
12115;DHT22;6121;49.810;6.418;2023-04-25T00:50:23;8.80;99.90
12115;DHT22;6121;49.810;6.418;2023-04-25T00:52:49;8.80;99.90
12115;DHT22;6121;49.810;6.418;2023-04-25T00:55:17;8.60;99.90
12115;DHT22;6121;49.810;6.418;2023-04-25T00:57:43;8.60;99.90
12115;DHT22;6121;49.810;6.418;2023-04-25T01:00:09;8.70;99.90
12115;DHT22;6121;49.810;6.418;2023-04-25T01:02:36;8.50;99.90
12115;DHT22;6121;49.810;6.418;2023-04-25T01:05:03;8.50;99.90
12115;DHT22;6121;49.810;6.418;2023-04-25T01:07:29;8.50;99.90
12115;DHT22;6121;49.810;6.418;2023-04-25T01:09:56;8.30;99.90
12115;DHT22;6121;49.810;6.418;2023-04-25T01:12:22;8.30;99.90
12115;DHT22;6121;49.810;6.418;2023-04-25T01:14:49;8.40;99.90
12115;DHT22;6121;49.810;6.418;2023-04-25T01:17:15;8.60;99.90
12115;DHT22;6121;49.810;6.418;2023-04-25T01:19:41;8.70;99.90
12115;DHT22;6121;49.810;6.418;2023-04-25T01:22:07;8.40;99.90
12115;DHT22;6121;49.810;6.418;2023-04-25T01:24:36;8.40;99.90
12115;DHT22;6121;49.810;6.418;2023-04-25T01:27:02;8.30;99.90
12115;DHT22;6121;49.810;6.418;2023-04-25T01:29:29;8.50;99.90
12115;DHT22;6121;49.810;6.418;2023-04-25T01:31:56;8.50;99.90
12115;DHT22;6121;49.810;6.418;2023-04-25T01:34:24;8.60;99.90
12115;DHT22;6121;49.810;6.418;2023-04-25T01:36:51;8.60;99.90
12115;DHT22;6121;49.810;6.418;2023-04-25T01:39:18;8.60;99.90
12115;DHT22;6121;49.810;6.418;2023-04-25T01:41:48;8.50;99.90
12115;DHT22;6121;49.810;6.418;2023-04-25T01:44:16;8.50;99.90
12115;DHT22;6121;49.810;6.418;2023-04-25T01:46:42;8.30;99.90
12115;DHT22;6121;49.810;6.418;2023-04-25T01:49:08;8.40;99.90
12115;DHT22;6121;49.810;6.418;2023-04-25T01:51:34;8.40;99.90
12115;DHT22;6121;49.810;6.418;2023-04-25T01:54:00;8.30;99.90
12115;DHT22;6121;49.810;6.418;2023-04-25T01:56:33;8.30;99.90
12115;DHT22;6121;49.810;6.418;2023-04-25T01:59:03;8.00;99.90
12115;DHT22;6121;49.810;6.418;2023-04-25T02:01:50;8.10;99.90
12115;DHT22;6121;49.810;6.418;2023-04-25T02:04:22;8.00;99.90
12115;DHT22;6121;49.810;6.418;2023-04-25T02:06:48;8.20;99.90
12115;DHT22;6121;49.810;6.418;2023-04-25T02:09:15;8.20;99.90
12115;DHT22;6121;49.810;6.418;2023-04-25T02:11:45;8.30;99.90
12115;DHT22;6121;49.810;6.418;2023-04-25T02:14:37;8.40;99.90
12115;DHT22;6121;49.810;6.418;2023-04-25T02:17:13;8.50;99.90
12115;DHT22;6121;49.810;6.418;2023-04-25T02:19:39;8.50;99.90
12115;DHT22;6121;49.810;6.418;2023-04-25T02:22:06;8.50;99.90
12115;DHT22;6121;49.810;6.418;2023-04-25T02:24:32;8.50;99.90
12115;DHT22;6121;49.810;6.418;2023-04-25T02:26:59;8.30;99.90
12115;DHT22;6121;49.810;6.418;2023-04-25T02:29:25;8.30;99.90
12115;DHT22;6121;49.810;6.418;2023-04-25T02:31:51;8.40;99.90
12115;DHT22;6121;49.810;6.418;2023-04-25T02:34:16;8.30;99.90
12115;DHT22;6121;49.810;6.418;2023-04-25T02:36:42;8.40;99.90
12115;DHT22;6121;49.810;6.418;2023-04-25T02:39:08;8.50;99.90
12115;DHT22;6121;49.810;6.418;2023-04-25T02:41:34;8.40;99.90
12115;DHT22;6121;49.810;6.418;2023-04-25T02:44:00;8.40;99.90
12115;DHT22;6121;49.810;6.418;2023-04-25T02:46:26;8.40;99.90
12115;DHT22;6121;49.810;6.418;2023-04-25T02:48:51;8.30;99.90
12115;DHT22;6121;49.810;6.418;2023-04-25T02:51:17;8.50;99.90
12115;DHT22;6121;49.810;6.418;2023-04-25T02:53:43;8.50;99.90
12115;DHT22;6121;49.810;6.418;2023-04-25T02:56:09;8.60;99.90
12115;DHT22;6121;49.810;6.418;2023-04-25T02:58:35;8.50;99.90
12115;DHT22;6121;49.810;6.418;2023-04-25T03:01:01;8.40;99.90
12115;DHT22;6121;49.810;6.418;2023-04-25T03:03:27;8.40;99.90
12115;DHT22;6121;49.810;6.418;2023-04-25T03:05:52;8.50;99.90
12115;DHT22;6121;49.810;6.418;2023-04-25T03:08:23;8.50;99.90
12115;DHT22;6121;49.810;6.418;2023-04-25T03:10:50;8.50;99.90
12115;DHT22;6121;49.810;6.418;2023-04-25T03:13:18;8.40;99.90
12115;DHT22;6121;49.810;6.418;2023-04-25T03:15:43;8.50;99.90
12115;DHT22;6121;49.810;6.418;2023-04-25T03:18:09;8.50;99.90
12115;DHT22;6121;49.810;6.418;2023-04-25T03:20:35;8.30;99.90
12115;DHT22;6121;49.810;6.418;2023-04-25T03:23:02;8.30;99.90
12115;DHT22;6121;49.810;6.418;2023-04-25T03:25:29;8.40;99.90
12115;DHT22;6121;49.810;6.418;2023-04-25T03:27:55;8.30;99.90
12115;DHT22;6121;49.810;6.418;2023-04-25T03:30:21;8.40;99.90
12115;DHT22;6121;49.810;6.418;2023-04-25T03:32:47;8.40;99.90
12115;DHT22;6121;49.810;6.418;2023-04-25T03:35:16;8.50;99.90
12115;DHT22;6121;49.810;6.418;2023-04-25T03:37:42;8.40;99.90
12115;DHT22;6121;49.810;6.418;2023-04-25T03:40:12;8.40;99.90
12115;DHT22;6121;49.810;6.418;2023-04-25T03:43:04;8.40;99.90
12115;DHT22;6121;49.810;6.418;2023-04-25T03:45:30;8.40;99.90
12115;DHT22;6121;49.810;6.418;2023-04-25T03:47:56;8.30;99.90
12115;DHT22;6121;49.810;6.418;2023-04-25T03:50:22;8.30;99.90
12115;DHT22;6121;49.810;6.418;2023-04-25T03:52:48;8.30;99.90
12115;DHT22;6121;49.810;6.418;2023-04-25T03:55:14;8.30;99.90
12115;DHT22;6121;49.810;6.418;2023-04-25T03:57:41;8.20;99.90
12115;DHT22;6121;49.810;6.418;2023-04-25T04:00:07;8.30;99.90
12115;DHT22;6121;49.810;6.418;2023-04-25T04:02:39;8.40;99.90
12115;DHT22;6121;49.810;6.418;2023-04-25T04:05:06;8.30;99.90
12115;DHT22;6121;49.810;6.418;2023-04-25T04:07:35;8.20;99.90
12115;DHT22;6121;49.810;6.418;2023-04-25T04:10:06;8.20;99.90
12115;DHT22;6121;49.810;6.418;2023-04-25T04:12:36;8.20;99.90
12115;DHT22;6121;49.810;6.418;2023-04-25T04:15:06;8.30;99.90
12115;DHT22;6121;49.810;6.418;2023-04-25T04:17:33;8.40;99.90
12115;DHT22;6121;49.810;6.418;2023-04-25T04:19:59;8.30;99.90
12115;DHT22;6121;49.810;6.418;2023-04-25T04:22:27;8.30;99.90
12115;DHT22;6121;49.810;6.418;2023-04-25T04:24:57;8.30;99.90
12115;DHT22;6121;49.810;6.418;2023-04-25T04:27:43;8.00;99.90
12115;DHT22;6121;49.810;6.418;2023-04-25T04:30:24;8.10;99.90
12115;DHT22;6121;49.810;6.418;2023-04-25T04:32:57;8.30;99.90
12115;DHT22;6121;49.810;6.418;2023-04-25T04:35:23;8.20;99.90
12115;DHT22;6121;49.810;6.418;2023-04-25T04:37:50;8.10;99.90
12115;DHT22;6121;49.810;6.418;2023-04-25T04:40:18;8.20;99.90
12115;DHT22;6121;49.810;6.418;2023-04-25T04:42:51;8.30;99.90
12115;DHT22;6121;49.810;6.418;2023-04-25T04:45:27;8.20;99.90
12115;DHT22;6121;49.810;6.418;2023-04-25T04:48:26;8.20;99.90
12115;DHT22;6121;49.810;6.418;2023-04-25T04:51:11;8.20;99.90
12115;DHT22;6121;49.810;6.418;2023-04-25T04:54:02;8.30;99.90
12115;DHT22;6121;49.810;6.418;2023-04-25T04:56:44;8.30;99.90
12115;DHT22;6121;49.810;6.418;2023-04-25T04:59:37;8.40;99.90
12115;DHT22;6121;49.810;6.418;2023-04-25T05:02:17;8.50;99.90
12115;DHT22;6121;49.810;6.418;2023-04-25T05:04:59;8.50;99.90
12115;DHT22;6121;49.810;6.418;2023-04-25T05:07:35;8.40;99.90
12115;DHT22;6121;49.810;6.418;2023-04-25T05:10:20;8.50;99.90
12115;DHT22;6121;49.810;6.418;2023-04-25T05:12:55;8.50;99.90
12115;DHT22;6121;49.810;6.418;2023-04-25T05:15:44;8.60;99.90
12115;DHT22;6121;49.810;6.418;2023-04-25T05:18:21;8.40;99.90
12115;DHT22;6121;49.810;6.418;2023-04-25T05:21:00;8.40;99.90
12115;DHT22;6121;49.810;6.418;2023-04-25T05:23:44;8.50;99.90
12115;DHT22;6121;49.810;6.418;2023-04-25T05:26:32;8.50;99.90
12115;DHT22;6121;49.810;6.418;2023-04-25T05:29:21;8.60;99.90
12115;DHT22;6121;49.810;6.418;2023-04-25T05:32:13;8.50;99.90
12115;DHT22;6121;49.810;6.418;2023-04-25T05:34:41;8.50;99.90
12115;DHT22;6121;49.810;6.418;2023-04-25T05:37:15;8.50;99.90
12115;DHT22;6121;49.810;6.418;2023-04-25T05:39:53;8.50;99.90
12115;DHT22;6121;49.810;6.418;2023-04-25T05:42:37;8.50;99.90
12115;DHT22;6121;49.810;6.418;2023-04-25T05:45:26;8.50;99.90
12115;DHT22;6121;49.810;6.418;2023-04-25T05:48:04;8.60;99.90
12115;DHT22;6121;49.810;6.418;2023-04-25T05:50:40;8.60;99.90
12115;DHT22;6121;49.810;6.418;2023-04-25T05:53:19;8.70;99.90
12115;DHT22;6121;49.810;6.418;2023-04-25T05:55:52;8.80;99.90
12115;DHT22;6121;49.810;6.418;2023-04-25T05:58:23;8.60;99.90
12115;DHT22;6121;49.810;6.418;2023-04-25T06:00:49;8.70;99.90
12115;DHT22;6121;49.810;6.418;2023-04-25T06:03:16;8.80;99.90
12115;DHT22;6121;49.810;6.418;2023-04-25T06:05:45;8.80;99.90
12115;DHT22;6121;49.810;6.418;2023-04-25T06:08:11;8.90;99.90
12115;DHT22;6121;49.810;6.418;2023-04-25T06:10:38;8.70;99.90
12115;DHT22;6121;49.810;6.418;2023-04-25T06:13:04;8.70;99.90
12115;DHT22;6121;49.810;6.418;2023-04-25T06:15:34;8.80;99.90
12115;DHT22;6121;49.810;6.418;2023-04-25T06:18:01;8.70;99.90
12115;DHT22;6121;49.810;6.418;2023-04-25T06:20:27;8.70;99.90
12115;DHT22;6121;49.810;6.418;2023-04-25T06:22:56;8.80;99.90
12115;DHT22;6121;49.810;6.418;2023-04-25T06:25:31;8.90;99.90
12115;DHT22;6121;49.810;6.418;2023-04-25T06:27:57;8.70;99.90
12115;DHT22;6121;49.810;6.418;2023-04-25T06:30:23;8.80;99.90
12115;DHT22;6121;49.810;6.418;2023-04-25T06:32:55;8.90;99.90
12115;DHT22;6121;49.810;6.418;2023-04-25T06:35:21;8.90;99.90
12115;DHT22;6121;49.810;6.418;2023-04-25T06:37:47;9.00;99.90
12115;DHT22;6121;49.810;6.418;2023-04-25T06:40:13;9.00;99.90
12115;DHT22;6121;49.810;6.418;2023-04-25T06:42:39;9.00;99.90
12115;DHT22;6121;49.810;6.418;2023-04-25T06:45:25;8.80;99.90
12115;DHT22;6121;49.810;6.418;2023-04-25T06:47:52;8.80;99.90
12115;DHT22;6121;49.810;6.418;2023-04-25T06:50:18;8.80;99.90
12115;DHT22;6121;49.810;6.418;2023-04-25T06:52:44;8.90;99.90
12115;DHT22;6121;49.810;6.418;2023-04-25T06:55:09;9.20;99.90
12115;DHT22;6121;49.810;6.418;2023-04-25T06:57:56;9.00;99.90
12115;DHT22;6121;49.810;6.418;2023-04-25T07:00:41;9.00;99.90
12115;DHT22;6121;49.810;6.418;2023-04-25T07:03:07;9.00;99.90
12115;DHT22;6121;49.810;6.418;2023-04-25T07:05:33;9.10;99.90
12115;DHT22;6121;49.810;6.418;2023-04-25T07:07:59;9.10;99.90
12115;DHT22;6121;49.810;6.418;2023-04-25T07:10:26;9.00;99.90
12115;DHT22;6121;49.810;6.418;2023-04-25T07:12:52;9.00;99.90
12115;DHT22;6121;49.810;6.418;2023-04-25T07:15:18;8.90;99.90
12115;DHT22;6121;49.810;6.418;2023-04-25T07:17:47;8.90;99.90
12115;DHT22;6121;49.810;6.418;2023-04-25T07:20:13;9.00;99.90
12115;DHT22;6121;49.810;6.418;2023-04-25T07:22:39;9.10;99.90
12115;DHT22;6121;49.810;6.418;2023-04-25T07:25:05;9.10;99.90
12115;DHT22;6121;49.810;6.418;2023-04-25T07:27:32;9.00;99.90
12115;DHT22;6121;49.810;6.418;2023-04-25T07:30:05;9.00;99.90
12115;DHT22;6121;49.810;6.418;2023-04-25T07:32:31;9.00;99.90
12115;DHT22;6121;49.810;6.418;2023-04-25T07:34:57;9.10;99.90
12115;DHT22;6121;49.810;6.418;2023-04-25T07:37:23;8.80;99.90
12115;DHT22;6121;49.810;6.418;2023-04-25T07:40:01;8.90;99.90
12115;DHT22;6121;49.810;6.418;2023-04-25T07:42:45;9.00;99.90
12115;DHT22;6121;49.810;6.418;2023-04-25T07:45:15;9.20;99.90
12115;DHT22;6121;49.810;6.418;2023-04-25T07:47:42;9.20;99.90
12115;DHT22;6121;49.810;6.418;2023-04-25T07:50:08;9.20;99.90
12115;DHT22;6121;49.810;6.418;2023-04-25T07:52:34;9.30;99.90
12115;DHT22;6121;49.810;6.418;2023-04-25T07:55:08;9.30;99.90
12115;DHT22;6121;49.810;6.418;2023-04-25T07:57:44;9.50;99.90
12115;DHT22;6121;49.810;6.418;2023-04-25T08:00:11;9.50;99.90
12115;DHT22;6121;49.810;6.418;2023-04-25T08:02:45;9.60;99.90
12115;DHT22;6121;49.810;6.418;2023-04-25T08:05:14;9.60;99.90
12115;DHT22;6121;49.810;6.418;2023-04-25T08:07:44;9.50;99.90
12115;DHT22;6121;49.810;6.418;2023-04-25T08:10:11;9.40;99.90
12115;DHT22;6121;49.810;6.418;2023-04-25T08:12:36;9.50;99.90
12115;DHT22;6121;49.810;6.418;2023-04-25T08:15:04;9.40;99.90
12115;DHT22;6121;49.810;6.418;2023-04-25T08:17:34;9.40;99.90
12115;DHT22;6121;49.810;6.418;2023-04-25T08:20:00;9.60;99.90
12115;DHT22;6121;49.810;6.418;2023-04-25T08:22:30;9.60;99.90
12115;DHT22;6121;49.810;6.418;2023-04-25T08:25:19;9.70;99.90
12115;DHT22;6121;49.810;6.418;2023-04-25T08:27:45;9.90;99.90
12115;DHT22;6121;49.810;6.418;2023-04-25T08:30:11;9.80;99.90
12115;DHT22;6121;49.810;6.418;2023-04-25T08:32:39;9.70;99.90
12115;DHT22;6121;49.810;6.418;2023-04-25T08:35:18;9.70;99.90
12115;DHT22;6121;49.810;6.418;2023-04-25T08:37:44;9.70;99.90
12115;DHT22;6121;49.810;6.418;2023-04-25T08:40:14;9.80;99.90
12115;DHT22;6121;49.810;6.418;2023-04-25T08:42:54;9.90;99.90
12115;DHT22;6121;49.810;6.418;2023-04-25T08:45:21;9.90;99.90
12115;DHT22;6121;49.810;6.418;2023-04-25T08:47:47;9.90;99.90
12115;DHT22;6121;49.810;6.418;2023-04-25T08:50:17;9.90;99.90
12115;DHT22;6121;49.810;6.418;2023-04-25T08:52:45;9.90;99.90
12115;DHT22;6121;49.810;6.418;2023-04-25T08:55:13;9.90;99.90
12115;DHT22;6121;49.810;6.418;2023-04-25T08:57:41;9.90;99.90
12115;DHT22;6121;49.810;6.418;2023-04-25T09:00:09;10.00;99.90
12115;DHT22;6121;49.810;6.418;2023-04-25T09:02:39;9.80;99.90
12115;DHT22;6121;49.810;6.418;2023-04-25T09:05:07;9.80;99.90
12115;DHT22;6121;49.810;6.418;2023-04-25T09:07:35;9.70;99.90
12115;DHT22;6121;49.810;6.418;2023-04-25T09:10:01;9.70;99.90
12115;DHT22;6121;49.810;6.418;2023-04-25T09:12:30;9.60;99.90
12115;DHT22;6121;49.810;6.418;2023-04-25T09:15:08;9.70;99.90
12115;DHT22;6121;49.810;6.418;2023-04-25T09:17:57;9.80;99.90
12115;DHT22;6121;49.810;6.418;2023-04-25T09:20:26;9.80;99.90
12115;DHT22;6121;49.810;6.418;2023-04-25T09:23:03;9.80;99.90
12115;DHT22;6121;49.810;6.418;2023-04-25T09:25:36;9.90;99.90
12115;DHT22;6121;49.810;6.418;2023-04-25T09:28:06;9.90;99.90
12115;DHT22;6121;49.810;6.418;2023-04-25T09:30:35;10.10;99.90
12115;DHT22;6121;49.810;6.418;2023-04-25T09:33:11;10.30;99.90
12115;DHT22;6121;49.810;6.418;2023-04-25T09:35:41;10.40;99.90
12115;DHT22;6121;49.810;6.418;2023-04-25T09:38:13;10.40;99.90
12115;DHT22;6121;49.810;6.418;2023-04-25T09:41:23;10.40;99.90
12115;DHT22;6121;49.810;6.418;2023-04-25T09:43:49;10.60;99.90
12115;DHT22;6121;49.810;6.418;2023-04-25T09:46:16;10.60;99.90
12115;DHT22;6121;49.810;6.418;2023-04-25T09:48:52;10.60;99.90
12115;DHT22;6121;49.810;6.418;2023-04-25T09:51:26;10.70;99.90
12115;DHT22;6121;49.810;6.418;2023-04-25T09:53:53;10.80;99.90
12115;DHT22;6121;49.810;6.418;2023-04-25T09:56:35;10.80;99.90
12115;DHT22;6121;49.810;6.418;2023-04-25T09:59:05;11.00;99.90
12115;DHT22;6121;49.810;6.418;2023-04-25T10:01:34;10.70;99.90
12115;DHT22;6121;49.810;6.418;2023-04-25T10:04:13;10.70;99.90
12115;DHT22;6121;49.810;6.418;2023-04-25T10:07:02;10.80;99.90
12115;DHT22;6121;49.810;6.418;2023-04-25T10:09:29;10.90;99.90
12115;DHT22;6121;49.810;6.418;2023-04-25T10:12:00;10.70;99.90
12115;DHT22;6121;49.810;6.418;2023-04-25T10:14:27;10.70;99.90
12115;DHT22;6121;49.810;6.418;2023-04-25T10:16:54;10.70;99.90
12115;DHT22;6121;49.810;6.418;2023-04-25T10:19:22;10.80;99.90
12115;DHT22;6121;49.810;6.418;2023-04-25T10:22:08;10.70;99.90
12115;DHT22;6121;49.810;6.418;2023-04-25T10:24:37;10.60;99.90
12115;DHT22;6121;49.810;6.418;2023-04-25T10:27:04;10.90;99.90
12115;DHT22;6121;49.810;6.418;2023-04-25T10:29:31;11.00;99.90
12115;DHT22;6121;49.810;6.418;2023-04-25T10:31:58;11.00;99.90
12115;DHT22;6121;49.810;6.418;2023-04-25T10:34:46;11.30;99.90
12115;DHT22;6121;49.810;6.418;2023-04-25T10:37:14;12.10;99.90
12115;DHT22;6121;49.810;6.418;2023-04-25T10:39:41;12.80;99.90
12115;DHT22;6121;49.810;6.418;2023-04-25T10:42:07;13.30;99.90
12115;DHT22;6121;49.810;6.418;2023-04-25T10:44:37;13.60;99.90
12115;DHT22;6121;49.810;6.418;2023-04-25T10:47:07;13.40;99.90
12115;DHT22;6121;49.810;6.418;2023-04-25T10:49:41;13.20;99.90
12115;DHT22;6121;49.810;6.418;2023-04-25T10:52:26;13.00;99.90
12115;DHT22;6121;49.810;6.418;2023-04-25T10:54:57;12.50;99.90
12115;DHT22;6121;49.810;6.418;2023-04-25T10:57:37;12.80;99.90
12115;DHT22;6121;49.810;6.418;2023-04-25T11:02:31;12.80;99.90
12115;DHT22;6121;49.810;6.418;2023-04-25T11:04:57;12.60;99.90
12115;DHT22;6121;49.810;6.418;2023-04-25T11:08:01;12.80;99.90
12115;DHT22;6121;49.810;6.418;2023-04-25T11:10:27;12.70;99.90
12115;DHT22;6121;49.810;6.418;2023-04-25T11:12:53;12.40;99.90
12115;DHT22;6121;49.810;6.418;2023-04-25T11:15:19;12.20;99.90
12115;DHT22;6121;49.810;6.418;2023-04-25T11:17:45;12.10;99.90
12115;DHT22;6121;49.810;6.418;2023-04-25T11:20:13;12.10;99.90
12115;DHT22;6121;49.810;6.418;2023-04-25T11:22:41;11.60;99.90
12115;DHT22;6121;49.810;6.418;2023-04-25T11:25:08;11.60;99.90
12115;DHT22;6121;49.810;6.418;2023-04-25T11:27:37;11.50;99.90
12115;DHT22;6121;49.810;6.418;2023-04-25T11:30:11;11.40;99.90
12115;DHT22;6121;49.810;6.418;2023-04-25T11:32:39;11.40;99.90
12115;DHT22;6121;49.810;6.418;2023-04-25T11:35:06;11.30;99.90
12115;DHT22;6121;49.810;6.418;2023-04-25T11:37:32;11.50;99.90
12115;DHT22;6121;49.810;6.418;2023-04-25T11:40:00;11.70;99.90
12115;DHT22;6121;49.810;6.418;2023-04-25T11:42:26;12.30;99.90
12115;DHT22;6121;49.810;6.418;2023-04-25T11:44:52;12.90;99.90
12115;DHT22;6121;49.810;6.418;2023-04-25T11:47:18;13.30;99.90
12115;DHT22;6121;49.810;6.418;2023-04-25T11:49:44;13.60;99.80
12115;DHT22;6121;49.810;6.418;2023-04-25T11:52:09;13.90;99.10
12115;DHT22;6121;49.810;6.418;2023-04-25T11:54:37;14.10;98.50
12115;DHT22;6121;49.810;6.418;2023-04-25T11:57:03;14.00;97.70
12115;DHT22;6121;49.810;6.418;2023-04-25T11:59:29;13.90;97.70
12115;DHT22;6121;49.810;6.418;2023-04-25T12:01:55;13.60;97.60
12115;DHT22;6121;49.810;6.418;2023-04-25T12:04:24;13.50;97.90
12115;DHT22;6121;49.810;6.418;2023-04-25T12:06:52;13.60;98.30
12115;DHT22;6121;49.810;6.418;2023-04-25T12:09:20;13.60;98.00
12115;DHT22;6121;49.810;6.418;2023-04-25T12:14:26;13.40;97.90
12115;DHT22;6121;49.810;6.418;2023-04-25T12:16:55;13.30;98.20
12115;DHT22;6121;49.810;6.418;2023-04-25T12:19:21;13.50;98.30
12115;DHT22;6121;49.810;6.418;2023-04-25T12:21:48;13.60;98.30
12115;DHT22;6121;49.810;6.418;2023-04-25T12:24:16;13.70;97.90
12115;DHT22;6121;49.810;6.418;2023-04-25T12:27:00;13.80;98.00
12115;DHT22;6121;49.810;6.418;2023-04-25T12:29:29;13.60;97.30
12115;DHT22;6121;49.810;6.418;2023-04-25T12:31:55;13.40;97.50
12115;DHT22;6121;49.810;6.418;2023-04-25T12:34:22;13.50;97.70
12115;DHT22;6121;49.810;6.418;2023-04-25T12:36:48;13.30;97.50
12115;DHT22;6121;49.810;6.418;2023-04-25T12:39:19;13.20;97.50
12115;DHT22;6121;49.810;6.418;2023-04-25T12:41:47;13.00;96.90
12115;DHT22;6121;49.810;6.418;2023-04-25T12:44:14;12.80;96.60
12115;DHT22;6121;49.810;6.418;2023-04-25T12:46:41;12.80;96.60
12115;DHT22;6121;49.810;6.418;2023-04-25T12:49:09;12.80;96.80
12115;DHT22;6121;49.810;6.418;2023-04-25T12:51:35;12.90;96.90
12115;DHT22;6121;49.810;6.418;2023-04-25T12:54:06;13.10;96.50
12115;DHT22;6121;49.810;6.418;2023-04-25T12:56:33;13.10;96.30
12115;DHT22;6121;49.810;6.418;2023-04-25T12:58:59;13.10;96.50
12115;DHT22;6121;49.810;6.418;2023-04-25T13:01:25;13.20;95.90
12115;DHT22;6121;49.810;6.418;2023-04-25T13:03:53;13.30;95.80
12115;DHT22;6121;49.810;6.418;2023-04-25T13:06:22;13.40;95.30
12115;DHT22;6121;49.810;6.418;2023-04-25T13:08:48;13.30;95.00
12115;DHT22;6121;49.810;6.418;2023-04-25T13:11:14;13.50;94.80
12115;DHT22;6121;49.810;6.418;2023-04-25T13:13:40;13.70;94.70
12115;DHT22;6121;49.810;6.418;2023-04-25T13:16:07;13.70;95.00
12115;DHT22;6121;49.810;6.418;2023-04-25T13:18:33;13.50;94.50
12115;DHT22;6121;49.810;6.418;2023-04-25T13:20:59;13.20;94.00
12115;DHT22;6121;49.810;6.418;2023-04-25T13:23:26;13.20;94.00
12115;DHT22;6121;49.810;6.418;2023-04-25T13:25:55;13.20;94.00
12115;DHT22;6121;49.810;6.418;2023-04-25T13:28:24;13.20;93.80
12115;DHT22;6121;49.810;6.418;2023-04-25T13:30:50;13.10;94.00
12115;DHT22;6121;49.810;6.418;2023-04-25T13:33:18;13.00;93.60
12115;DHT22;6121;49.810;6.418;2023-04-25T13:35:47;13.10;94.30
12115;DHT22;6121;49.810;6.418;2023-04-25T13:38:21;13.40;94.20
12115;DHT22;6121;49.810;6.418;2023-04-25T13:40:48;13.70;94.20
12115;DHT22;6121;49.810;6.418;2023-04-25T13:43:14;13.80;93.80
12115;DHT22;6121;49.810;6.418;2023-04-25T13:45:40;13.80;93.60
12115;DHT22;6121;49.810;6.418;2023-04-25T13:48:07;13.70;93.50
12115;DHT22;6121;49.810;6.418;2023-04-25T13:50:33;13.70;93.40
12115;DHT22;6121;49.810;6.418;2023-04-25T13:53:02;13.50;93.50
12115;DHT22;6121;49.810;6.418;2023-04-25T13:55:28;13.50;93.60
12115;DHT22;6121;49.810;6.418;2023-04-25T13:57:54;13.50;93.70
12115;DHT22;6121;49.810;6.418;2023-04-25T14:00:20;13.40;93.10
12115;DHT22;6121;49.810;6.418;2023-04-25T14:02:46;13.40;93.20
12115;DHT22;6121;49.810;6.418;2023-04-25T14:05:12;13.40;93.30
12115;DHT22;6121;49.810;6.418;2023-04-25T14:07:39;13.20;93.20
12115;DHT22;6121;49.810;6.418;2023-04-25T14:10:05;13.20;93.20
12115;DHT22;6121;49.810;6.418;2023-04-25T14:12:32;13.20;93.00
12115;DHT22;6121;49.810;6.418;2023-04-25T14:14:58;13.20;92.90
12115;DHT22;6121;49.810;6.418;2023-04-25T14:17:24;13.10;92.70
12115;DHT22;6121;49.810;6.418;2023-04-25T14:19:51;13.10;93.10
12115;DHT22;6121;49.810;6.418;2023-04-25T14:22:17;13.30;92.40
12115;DHT22;6121;49.810;6.418;2023-04-25T14:24:43;13.30;92.20
12115;DHT22;6121;49.810;6.418;2023-04-25T14:27:09;13.40;92.20
12115;DHT22;6121;49.810;6.418;2023-04-25T14:29:37;13.40;91.80
12115;DHT22;6121;49.810;6.418;2023-04-25T14:32:03;13.30;91.50
12115;DHT22;6121;49.810;6.418;2023-04-25T14:34:30;13.30;91.40
12115;DHT22;6121;49.810;6.418;2023-04-25T14:36:56;13.40;92.00
12115;DHT22;6121;49.810;6.418;2023-04-25T14:39:22;13.50;92.10
12115;DHT22;6121;49.810;6.418;2023-04-25T14:41:48;13.40;91.80
12115;DHT22;6121;49.810;6.418;2023-04-25T14:44:13;13.20;92.20
12115;DHT22;6121;49.810;6.418;2023-04-25T14:46:39;13.00;92.00
12115;DHT22;6121;49.810;6.418;2023-04-25T14:49:05;13.00;92.40
12115;DHT22;6121;49.810;6.418;2023-04-25T14:51:31;13.00;92.60
12115;DHT22;6121;49.810;6.418;2023-04-25T14:53:57;12.90;92.20
12115;DHT22;6121;49.810;6.418;2023-04-25T14:56:23;12.80;92.50
12115;DHT22;6121;49.810;6.418;2023-04-25T14:58:49;12.80;92.50
12115;DHT22;6121;49.810;6.418;2023-04-25T15:01:15;12.80;92.70
12115;DHT22;6121;49.810;6.418;2023-04-25T15:03:41;12.90;92.50
12115;DHT22;6121;49.810;6.418;2023-04-25T15:06:07;13.00;92.50
12115;DHT22;6121;49.810;6.418;2023-04-25T15:08:33;13.00;92.30
12115;DHT22;6121;49.810;6.418;2023-04-25T15:10:59;13.00;91.70
12115;DHT22;6121;49.810;6.418;2023-04-25T15:13:26;12.90;91.80
12115;DHT22;6121;49.810;6.418;2023-04-25T15:15:52;12.80;91.90
12115;DHT22;6121;49.810;6.418;2023-04-25T15:18:23;12.80;91.80
12115;DHT22;6121;49.810;6.418;2023-04-25T15:20:50;12.70;92.20
12115;DHT22;6121;49.810;6.418;2023-04-25T15:23:17;12.70;92.50
12115;DHT22;6121;49.810;6.418;2023-04-25T15:25:44;12.90;92.30
12115;DHT22;6121;49.810;6.418;2023-04-25T15:28:10;12.80;91.40
12115;DHT22;6121;49.810;6.418;2023-04-25T15:30:35;12.80;91.20
12115;DHT22;6121;49.810;6.418;2023-04-25T15:33:01;12.80;91.50
12115;DHT22;6121;49.810;6.418;2023-04-25T15:35:28;12.90;91.20
12115;DHT22;6121;49.810;6.418;2023-04-25T15:37:54;12.90;90.80
12115;DHT22;6121;49.810;6.418;2023-04-25T15:40:20;12.80;91.20
12115;DHT22;6121;49.810;6.418;2023-04-25T15:42:51;12.60;91.80
12115;DHT22;6121;49.810;6.418;2023-04-25T15:45:23;12.50;92.00
12115;DHT22;6121;49.810;6.418;2023-04-25T15:47:55;12.50;92.00
12115;DHT22;6121;49.810;6.418;2023-04-25T15:50:23;12.60;91.60
12115;DHT22;6121;49.810;6.418;2023-04-25T15:52:49;12.50;91.70
12115;DHT22;6121;49.810;6.418;2023-04-25T15:55:17;12.50;91.80
12115;DHT22;6121;49.810;6.418;2023-04-25T15:57:43;12.70;92.20
12115;DHT22;6121;49.810;6.418;2023-04-25T16:00:09;12.50;92.40
12115;DHT22;6121;49.810;6.418;2023-04-25T16:02:39;12.50;92.70
12115;DHT22;6121;49.810;6.418;2023-04-25T16:05:05;12.30;92.80
12115;DHT22;6121;49.810;6.418;2023-04-25T16:07:32;12.00;93.00
12115;DHT22;6121;49.810;6.418;2023-04-25T16:09:58;11.90;93.20
12115;DHT22;6121;49.810;6.418;2023-04-25T16:12:24;11.90;93.40
12115;DHT22;6121;49.810;6.418;2023-04-25T16:14:50;12.00;93.50